الصفحة الرئيسية
METAR-TAF:

METAR-TAF

مطار :

ألور ستار, ماليزيا

دائرة عرض: 06-11-40N, خط طول: 100-24-03E, ارتفاع: 5 متر

مراقبة الطقس الحالي

تاريخ ووقت الإصدار 1ساعة و 17 دقيقة قبل الساعة 22:00UTC
رياح هادئة
درجة الحرارة 26°درجة مئوية
الرطوبة 100%
ضغط 1008 hPa
الرؤية: 7000 متر
غيوم قليلة على ارتفاع 1000 قدم
غيوم متفرقة على ارتفاع 2600 قدم
مطر خفيف

METAR: WMKA 252200Z 00000KT 7000 -RA FEW010 SCT026 26/26 Q1008

زمن: 07:17 (23:17 UTC)

توقعات

تاريخ ووقت الإصدار 6ساعات و 17 دقيقة قبل الساعة 17:00UTC
التوقعات صالحة من25 الساعة 18 UTC إلى 26 الساعة 18 UTC
ريح 3 عقدةمن اتجاهات متغيرة
الرؤية: 9000 متر
غيوم قليلة على ارتفاع 2800 قدم
أصبح
من 26 الساعة 04 UTC إلى 26 الساعة 06 UTC
ريح 7 عقدة من الغرب
الرؤية 10 كم أو أكثر
غيوم قليلة على ارتفاع 2000 قدم

TAF: WMKA 251700Z 2518/2618 VRB03KT 9000 FEW028 BECMG 2604/2606 26007KT 9999 FEW020

أرصاد الطقس والتوقعات من أكثر من 4000 مطار (تقارير الطقس للمطار METAR والتنبؤ بالطقس بالمطارTAF).

المحطات المتاحة هي النقط الصفراء والحمراء على الخريطة.

حرك المؤشر فوق النقطة لمعرفة اسم المحطة.

ثم انقر لمعرفة أرصاد وتوقعات الطقس.

لتغيير الخارطة: اضغط على الأزرار الخضراء مع رمز الصليب الأسود للتكبير. على الزر الأخضر مع شرطة للتصغير، أو على الأسهم الخضراء للخرائط المجاورة.


METAR-TAF: